Easy to use

vPilot, FSInn, and Squawkbox

VATSIM has 3 different client software available to choose by the user. The 3 different softwares are relatively easy to use and enjoyable to the user's experience. The software's operating manual is available to download in case user has not been able to fully operate the software to get a real working pilot experience.

Radar that functions similarly to real ATC's radar

EuroScope & VRC

VATSIM uses an advanced radar client simulating real ATC experience in the real world. Although it said to be advanced, both radar clients are very easy to use. Another interesting point is VATSIM has the technology to break the limit between simulation and real life experience.

With VATSIM, you can learn more about aviation.
You can also discuss with other aviation geek.

Unforgettable Experience

Current Activity

ATC

Name Position
Stevin Leonoreza (1295168) WAHS_APP

Pilot

Callsign Name Route
CES5029Andrew Chan ZGGG (1297165)ZSPD-WADD
CPA784Ray Dotulung WIHH (1037514)WADD-VHHH
GA531Mikhael Kent WADD (1429245)WIII-WSSS
SIA959David Arman WIII (1401720)WIII-WSSS

*This information may not be up to date.

METAR

Airport Name - Location (ICAO) METAR
Sultan Hasanuddin - Makassar (WAAA)METAR WAAA 230500Z 28005KT 220V320 9999 FEW019 32/25 Q1009|NOSIG=
I Gusti Ngurah Rai - Denpasar (WADD)METAR WADD 230500Z 10009KT 9999 FEW017 31/25 Q1009|NOSIG=
Ahmad Yani - Semarang (WAHS)METAR WAHS 230500Z 32008KT 8000 FEW014 31/23 Q1009|NOSIG=
Juanda - Surabaya (WARR)METAR WARR 230500Z 08008KT 050V120 9999 TS FEW020CB 31/25 Q1009|NOSIG=
Soekarno Hatta - Jakarta (WIII)METAR WIII 230500Z VRB05KT 9999 BKN019 31/25 Q1009|NOSIG=
Halim Perdana Kusuma - Jakarta (WIHH)METAR WIHH 230500Z 28004KT 6000 SCT020 32/23 Q1009|NOSIG=
Kualanamu International Airport - Deli Serdang (WIMM)METAR WIMM 230500Z 01006KT 8000 SCT017 31/25 Q1009|NOSIG=

*METAR resource from BMKG. This information may not be up to date.

VATSIM Indonesia vACC VATSIM South East Asia VATSIM Asia